Muskego, WI

9:42 PM CDT on July 29, 2016 (GMT -0500)
| | Change Station

Elev -9999 ft 0.00 °N, 0.00 °E | Updated

°F
Feels Like °F
N
Wind Variable Wind from
Gusts mph

Today
High -- | Low -- °F
--% Chance of Precip.
Yesterday
High -- | Low -- °F
Precip. -- in
Pressure 30.02 in
Visibility 10.0 miles
Clouds Clear
Windchill °F
Dew Point Not available.
Humidity Not available.
Rainfall --
Snow Depth Not available.
5:40 AM 8:15 PM
Waning Crescent, 17% visible
METAR KUES 300235Z AUTO 03004KT 10SM CLR 18/15 A3002 RMK AO2
Pressure 30.02 in
Visibility 10.0 miles
Clouds Clear
Windchill °F
Dew Point Not available.
Humidity Not available.
Rainfall --
Snow Depth Not available.
5:40 AM 8:15 PM
Waning Crescent, 17% visible
METAR KUES 300235Z AUTO 03004KT 10SM CLR 18/15 A3002 RMK AO2

10-Day Weather Forecast

Almanac

Astronomy

Jul. 29, 2016 Rise Set
Actual Time
Civil Twilight
Nautical Twilight
Astronomical Twilight
Moon
Length of Visible Light
Length of Day
Tomorrow will be .
, % of the Moon is Illuminated

Today's Extremes

State Highs State Lows

Community

WunderPhotos

Upload Photos

1,928,491 photos uploaded!

WunderBlog® & News

Nearby

Air Quality

  Air Quality AQ Index Pollutant
Not available.

Snow Depth

Station Depth Elevation

Earthquake Activity

City Distance Mag. Time & Date
Minimum magnitude displayed is 2.5.

Coastal Water Temperatures

Place Temperature

Stations

Nearby Weather Stations

Station Location Temp. Windchill Dew Point Humidity Wind Precip. Elev Updated Type
                   

Watches & Warnings

There are currently no watches in effect.